sensor_id;sensor_type;location;lat;lon;timestamp;P1;durP1;ratioP1;P2;durP2;ratioP2
20207;SDS011;10263;48.716;8.760;2023-02-11T00:00:11;19.00;;;12.30;;
20207;SDS011;10263;48.716;8.760;2023-02-11T00:02:39;16.53;;;12.03;;
20207;SDS011;10263;48.716;8.760;2023-02-11T00:05:06;18.57;;;11.53;;
20207;SDS011;10263;48.716;8.760;2023-02-11T00:07:35;20.67;;;11.23;;
20207;SDS011;10263;48.716;8.760;2023-02-11T00:10:02;16.33;;;10.50;;
20207;SDS011;10263;48.716;8.760;2023-02-11T00:12:30;18.37;;;10.57;;
20207;SDS011;10263;48.716;8.760;2023-02-11T00:14:57;18.53;;;10.93;;
20207;SDS011;10263;48.716;8.760;2023-02-11T00:17:24;14.67;;;9.63;;
20207;SDS011;10263;48.716;8.760;2023-02-11T00:19:51;18.87;;;10.63;;
20207;SDS011;10263;48.716;8.760;2023-02-11T00:22:18;16.73;;;10.67;;
20207;SDS011;10263;48.716;8.760;2023-02-11T00:24:47;19.60;;;11.03;;
20207;SDS011;10263;48.716;8.760;2023-02-11T00:27:13;18.67;;;12.03;;
20207;SDS011;10263;48.716;8.760;2023-02-11T00:29:41;21.17;;;13.83;;
20207;SDS011;10263;48.716;8.760;2023-02-11T00:32:08;22.27;;;13.00;;
20207;SDS011;10263;48.716;8.760;2023-02-11T00:34:35;17.73;;;11.63;;
20207;SDS011;10263;48.716;8.760;2023-02-11T00:37:03;26.00;;;13.47;;
20207;SDS011;10263;48.716;8.760;2023-02-11T00:39:30;25.17;;;13.90;;
20207;SDS011;10263;48.716;8.760;2023-02-11T00:41:58;21.73;;;13.97;;
20207;SDS011;10263;48.716;8.760;2023-02-11T00:44:25;25.33;;;13.93;;
20207;SDS011;10263;48.716;8.760;2023-02-11T00:46:52;22.33;;;13.03;;
20207;SDS011;10263;48.716;8.760;2023-02-11T00:49:19;26.87;;;14.07;;
20207;SDS011;10263;48.716;8.760;2023-02-11T00:51:47;17.23;;;11.10;;
20207;SDS011;10263;48.716;8.760;2023-02-11T00:54:14;15.37;;;9.80;;
20207;SDS011;10263;48.716;8.760;2023-02-11T00:56:41;15.47;;;10.63;;
20207;SDS011;10263;48.716;8.760;2023-02-11T00:59:09;20.33;;;11.03;;
20207;SDS011;10263;48.716;8.760;2023-02-11T01:01:36;22.13;;;12.77;;
20207;SDS011;10263;48.716;8.760;2023-02-11T01:04:03;15.10;;;9.93;;
20207;SDS011;10263;48.716;8.760;2023-02-11T01:06:31;20.70;;;12.43;;
20207;SDS011;10263;48.716;8.760;2023-02-11T01:08:57;19.73;;;11.60;;
20207;SDS011;10263;48.716;8.760;2023-02-11T01:11:25;17.37;;;11.47;;
20207;SDS011;10263;48.716;8.760;2023-02-11T01:13:51;18.47;;;12.00;;
20207;SDS011;10263;48.716;8.760;2023-02-11T01:16:21;15.50;;;10.90;;
20207;SDS011;10263;48.716;8.760;2023-02-11T01:18:48;17.23;;;11.00;;
20207;SDS011;10263;48.716;8.760;2023-02-11T01:21:16;21.40;;;12.13;;
20207;SDS011;10263;48.716;8.760;2023-02-11T01:23:43;16.63;;;10.47;;
20207;SDS011;10263;48.716;8.760;2023-02-11T01:26:10;16.57;;;11.93;;
20207;SDS011;10263;48.716;8.760;2023-02-11T01:28:37;17.23;;;10.30;;
20207;SDS011;10263;48.716;8.760;2023-02-11T01:31:04;17.10;;;11.13;;
20207;SDS011;10263;48.716;8.760;2023-02-11T01:33:32;17.83;;;11.00;;
20207;SDS011;10263;48.716;8.760;2023-02-11T01:35:59;16.03;;;10.50;;
20207;SDS011;10263;48.716;8.760;2023-02-11T01:38:27;19.43;;;11.43;;
20207;SDS011;10263;48.716;8.760;2023-02-11T01:40:55;19.40;;;10.60;;
20207;SDS011;10263;48.716;8.760;2023-02-11T01:43:24;19.10;;;11.10;;
20207;SDS011;10263;48.716;8.760;2023-02-11T01:45:57;16.33;;;9.80;;
20207;SDS011;10263;48.716;8.760;2023-02-11T01:48:28;16.87;;;9.63;;
20207;SDS011;10263;48.716;8.760;2023-02-11T01:51:00;18.30;;;10.43;;
20207;SDS011;10263;48.716;8.760;2023-02-11T01:53:30;21.63;;;12.00;;
20207;SDS011;10263;48.716;8.760;2023-02-11T01:56:16;19.90;;;10.63;;
20207;SDS011;10263;48.716;8.760;2023-02-11T01:59:12;20.53;;;11.43;;
20207;SDS011;10263;48.716;8.760;2023-02-11T02:01:44;16.07;;;10.87;;
20207;SDS011;10263;48.716;8.760;2023-02-11T02:04:13;18.53;;;11.20;;
20207;SDS011;10263;48.716;8.760;2023-02-11T02:06:47;20.73;;;9.93;;
20207;SDS011;10263;48.716;8.760;2023-02-11T02:09:16;18.77;;;10.63;;
20207;SDS011;10263;48.716;8.760;2023-02-11T02:11:47;16.37;;;10.63;;
20207;SDS011;10263;48.716;8.760;2023-02-11T02:14:14;18.40;;;11.53;;
20207;SDS011;10263;48.716;8.760;2023-02-11T02:16:42;17.10;;;10.57;;
20207;SDS011;10263;48.716;8.760;2023-02-11T02:25:39;15.67;;;9.70;;
20207;SDS011;10263;48.716;8.760;2023-02-11T02:28:35;17.30;;;9.93;;
20207;SDS011;10263;48.716;8.760;2023-02-11T02:31:24;17.43;;;9.90;;
20207;SDS011;10263;48.716;8.760;2023-02-11T02:34:05;16.93;;;9.60;;
20207;SDS011;10263;48.716;8.760;2023-02-11T02:36:39;21.30;;;11.20;;
20207;SDS011;10263;48.716;8.760;2023-02-11T02:39:13;14.63;;;10.10;;
20207;SDS011;10263;48.716;8.760;2023-02-11T02:41:46;15.63;;;10.00;;
20207;SDS011;10263;48.716;8.760;2023-02-11T02:44:14;16.13;;;10.67;;
20207;SDS011;10263;48.716;8.760;2023-02-11T02:46:41;20.57;;;11.37;;
20207;SDS011;10263;48.716;8.760;2023-02-11T02:49:11;17.67;;;11.03;;
20207;SDS011;10263;48.716;8.760;2023-02-11T02:57:37;16.50;;;9.73;;
20207;SDS011;10263;48.716;8.760;2023-02-11T03:00:20;15.67;;;9.83;;
20207;SDS011;10263;48.716;8.760;2023-02-11T03:02:59;18.73;;;11.47;;
20207;SDS011;10263;48.716;8.760;2023-02-11T03:05:37;19.83;;;11.27;;
20207;SDS011;10263;48.716;8.760;2023-02-11T03:08:13;20.77;;;11.13;;
20207;SDS011;10263;48.716;8.760;2023-02-11T03:10:44;20.43;;;11.87;;
20207;SDS011;10263;48.716;8.760;2023-02-11T03:13:14;19.73;;;12.43;;
20207;SDS011;10263;48.716;8.760;2023-02-11T03:15:43;16.47;;;11.33;;
20207;SDS011;10263;48.716;8.760;2023-02-11T03:18:14;18.43;;;10.13;;
20207;SDS011;10263;48.716;8.760;2023-02-11T03:20:48;21.63;;;12.50;;
20207;SDS011;10263;48.716;8.760;2023-02-11T03:23:18;16.90;;;10.80;;
20207;SDS011;10263;48.716;8.760;2023-02-11T03:25:49;19.97;;;11.43;;
20207;SDS011;10263;48.716;8.760;2023-02-11T03:28:21;17.93;;;11.13;;
20207;SDS011;10263;48.716;8.760;2023-02-11T03:30:55;18.17;;;11.07;;
20207;SDS011;10263;48.716;8.760;2023-02-11T03:33:27;16.93;;;11.67;;
20207;SDS011;10263;48.716;8.760;2023-02-11T03:36:01;16.40;;;11.17;;
20207;SDS011;10263;48.716;8.760;2023-02-11T03:38:34;16.07;;;10.17;;
20207;SDS011;10263;48.716;8.760;2023-02-11T03:41:07;17.93;;;10.83;;
20207;SDS011;10263;48.716;8.760;2023-02-11T03:43:37;17.97;;;10.90;;
20207;SDS011;10263;48.716;8.760;2023-02-11T03:46:07;19.07;;;10.40;;
20207;SDS011;10263;48.716;8.760;2023-02-11T03:48:37;16.40;;;10.27;;
20207;SDS011;10263;48.716;8.760;2023-02-11T03:51:08;16.57;;;10.50;;
20207;SDS011;10263;48.716;8.760;2023-02-11T03:53:37;15.43;;;10.10;;
20207;SDS011;10263;48.716;8.760;2023-02-11T03:56:08;20.10;;;11.10;;
20207;SDS011;10263;48.716;8.760;2023-02-11T03:58:38;18.10;;;11.50;;
20207;SDS011;10263;48.716;8.760;2023-02-11T04:01:05;14.03;;;9.77;;
20207;SDS011;10263;48.716;8.760;2023-02-11T04:03:33;18.43;;;9.90;;
20207;SDS011;10263;48.716;8.760;2023-02-11T04:06:01;17.20;;;10.47;;
20207;SDS011;10263;48.716;8.760;2023-02-11T04:08:29;18.00;;;11.60;;
20207;SDS011;10263;48.716;8.760;2023-02-11T04:10:56;18.07;;;11.37;;
20207;SDS011;10263;48.716;8.760;2023-02-11T04:13:24;19.77;;;11.60;;
20207;SDS011;10263;48.716;8.760;2023-02-11T04:15:51;21.30;;;11.97;;
20207;SDS011;10263;48.716;8.760;2023-02-11T04:18:18;17.23;;;10.83;;
20207;SDS011;10263;48.716;8.760;2023-02-11T04:20:44;15.23;;;9.63;;
20207;SDS011;10263;48.716;8.760;2023-02-11T04:23:11;15.47;;;10.37;;
20207;SDS011;10263;48.716;8.760;2023-02-11T04:25:39;16.97;;;11.03;;
20207;SDS011;10263;48.716;8.760;2023-02-11T04:28:08;14.93;;;9.30;;
20207;SDS011;10263;48.716;8.760;2023-02-11T04:30:35;16.70;;;9.53;;
20207;SDS011;10263;48.716;8.760;2023-02-11T04:33:02;16.60;;;10.50;;
20207;SDS011;10263;48.716;8.760;2023-02-11T04:35:29;15.43;;;9.80;;
20207;SDS011;10263;48.716;8.760;2023-02-11T04:37:55;17.10;;;9.47;;
20207;SDS011;10263;48.716;8.760;2023-02-11T04:40:23;19.07;;;10.43;;
20207;SDS011;10263;48.716;8.760;2023-02-11T04:42:51;14.27;;;8.93;;
20207;SDS011;10263;48.716;8.760;2023-02-11T04:45:18;14.20;;;9.83;;
20207;SDS011;10263;48.716;8.760;2023-02-11T04:47:45;15.10;;;9.90;;
20207;SDS011;10263;48.716;8.760;2023-02-11T04:50:12;13.53;;;9.03;;
20207;SDS011;10263;48.716;8.760;2023-02-11T04:52:39;18.23;;;10.27;;
20207;SDS011;10263;48.716;8.760;2023-02-11T04:55:06;14.53;;;9.53;;
20207;SDS011;10263;48.716;8.760;2023-02-11T04:57:33;13.30;;;8.03;;
20207;SDS011;10263;48.716;8.760;2023-02-11T05:00:02;18.63;;;9.87;;
20207;SDS011;10263;48.716;8.760;2023-02-11T05:02:30;33.67;;;19.23;;
20207;SDS011;10263;48.716;8.760;2023-02-11T05:04:57;37.33;;;18.40;;
20207;SDS011;10263;48.716;8.760;2023-02-11T05:07:24;20.93;;;12.27;;
20207;SDS011;10263;48.716;8.760;2023-02-11T05:09:51;19.77;;;12.37;;
20207;SDS011;10263;48.716;8.760;2023-02-11T05:12:18;15.47;;;9.97;;
20207;SDS011;10263;48.716;8.760;2023-02-11T05:14:46;16.73;;;10.67;;
20207;SDS011;10263;48.716;8.760;2023-02-11T05:17:14;19.83;;;10.50;;
20207;SDS011;10263;48.716;8.760;2023-02-11T05:19:40;15.17;;;10.03;;
20207;SDS011;10263;48.716;8.760;2023-02-11T05:22:07;15.50;;;9.50;;
20207;SDS011;10263;48.716;8.760;2023-02-11T05:24:34;18.07;;;10.77;;
20207;SDS011;10263;48.716;8.760;2023-02-11T05:27:01;16.53;;;9.93;;
20207;SDS011;10263;48.716;8.760;2023-02-11T05:29:29;16.00;;;9.57;;
20207;SDS011;10263;48.716;8.760;2023-02-11T05:31:57;15.53;;;9.70;;
20207;SDS011;10263;48.716;8.760;2023-02-11T05:34:25;11.70;;;8.50;;
20207;SDS011;10263;48.716;8.760;2023-02-11T05:36:52;22.00;;;12.27;;
20207;SDS011;10263;48.716;8.760;2023-02-11T05:39:19;16.87;;;10.40;;
20207;SDS011;10263;48.716;8.760;2023-02-11T05:41:46;17.33;;;10.37;;
20207;SDS011;10263;48.716;8.760;2023-02-11T05:44:13;57.67;;;27.00;;
20207;SDS011;10263;48.716;8.760;2023-02-11T05:46:40;27.10;;;14.60;;
20207;SDS011;10263;48.716;8.760;2023-02-11T05:49:07;38.97;;;20.83;;
20207;SDS011;10263;48.716;8.760;2023-02-11T05:51:35;22.27;;;11.53;;
20207;SDS011;10263;48.716;8.760;2023-02-11T05:54:02;14.93;;;9.13;;
20207;SDS011;10263;48.716;8.760;2023-02-11T05:56:29;22.90;;;12.83;;
20207;SDS011;10263;48.716;8.760;2023-02-11T05:58:57;21.53;;;10.67;;
20207;SDS011;10263;48.716;8.760;2023-02-11T06:01:24;36.27;;;13.63;;
20207;SDS011;10263;48.716;8.760;2023-02-11T06:03:51;33.80;;;11.90;;
20207;SDS011;10263;48.716;8.760;2023-02-11T06:06:19;15.10;;;9.00;;
20207;SDS011;10263;48.716;8.760;2023-02-11T06:08:47;34.00;;;13.13;;
20207;SDS011;10263;48.716;8.760;2023-02-11T06:11:14;25.23;;;10.13;;
20207;SDS011;10263;48.716;8.760;2023-02-11T06:13:41;18.37;;;7.80;;
20207;SDS011;10263;48.716;8.760;2023-02-11T06:16:09;11.10;;;8.30;;
20207;SDS011;10263;48.716;8.760;2023-02-11T06:18:36;12.97;;;8.93;;
20207;SDS011;10263;48.716;8.760;2023-02-11T06:21:05;17.03;;;9.77;;
20207;SDS011;10263;48.716;8.760;2023-02-11T06:23:32;14.30;;;8.53;;
20207;SDS011;10263;48.716;8.760;2023-02-11T06:26:01;12.43;;;8.30;;
20207;SDS011;10263;48.716;8.760;2023-02-11T06:28:29;11.60;;;8.33;;
20207;SDS011;10263;48.716;8.760;2023-02-11T06:30:56;14.10;;;9.50;;
20207;SDS011;10263;48.716;8.760;2023-02-11T06:33:23;11.50;;;7.83;;
20207;SDS011;10263;48.716;8.760;2023-02-11T06:35:50;12.73;;;6.73;;
20207;SDS011;10263;48.716;8.760;2023-02-11T06:38:17;11.20;;;7.53;;
20207;SDS011;10263;48.716;8.760;2023-02-11T06:40:46;10.67;;;7.90;;
20207;SDS011;10263;48.716;8.760;2023-02-11T06:43:14;12.17;;;7.93;;
20207;SDS011;10263;48.716;8.760;2023-02-11T06:45:41;15.40;;;9.13;;
20207;SDS011;10263;48.716;8.760;2023-02-11T06:48:08;13.97;;;8.13;;
20207;SDS011;10263;48.716;8.760;2023-02-11T06:50:35;12.67;;;8.13;;
20207;SDS011;10263;48.716;8.760;2023-02-11T06:53:02;15.27;;;8.83;;
20207;SDS011;10263;48.716;8.760;2023-02-11T06:55:29;11.67;;;8.03;;
20207;SDS011;10263;48.716;8.760;2023-02-11T06:57:56;15.30;;;10.37;;
20207;SDS011;10263;48.716;8.760;2023-02-11T07:00:24;16.33;;;10.60;;
20207;SDS011;10263;48.716;8.760;2023-02-11T07:02:53;13.00;;;8.23;;
20207;SDS011;10263;48.716;8.760;2023-02-11T07:05:21;13.43;;;8.83;;
20207;SDS011;10263;48.716;8.760;2023-02-11T07:07:47;13.13;;;8.47;;
20207;SDS011;10263;48.716;8.760;2023-02-11T07:10:15;10.43;;;7.73;;
20207;SDS011;10263;48.716;8.760;2023-02-11T07:12:41;15.20;;;8.50;;
20207;SDS011;10263;48.716;8.760;2023-02-11T07:15:08;14.20;;;8.60;;
20207;SDS011;10263;48.716;8.760;2023-02-11T07:17:37;12.67;;;8.07;;
20207;SDS011;10263;48.716;8.760;2023-02-11T07:20:04;20.67;;;12.73;;
20207;SDS011;10263;48.716;8.760;2023-02-11T07:22:32;22.97;;;13.80;;
20207;SDS011;10263;48.716;8.760;2023-02-11T07:24:59;14.70;;;9.30;;
20207;SDS011;10263;48.716;8.760;2023-02-11T07:27:26;14.80;;;9.40;;
20207;SDS011;10263;48.716;8.760;2023-02-11T07:29:53;11.00;;;8.50;;
20207;SDS011;10263;48.716;8.760;2023-02-11T07:32:20;15.53;;;9.23;;
20207;SDS011;10263;48.716;8.760;2023-02-11T07:34:48;13.47;;;8.53;;
20207;SDS011;10263;48.716;8.760;2023-02-11T07:37:15;19.97;;;9.10;;
20207;SDS011;10263;48.716;8.760;2023-02-11T07:39:43;13.30;;;8.10;;
20207;SDS011;10263;48.716;8.760;2023-02-11T07:42:10;11.53;;;7.37;;
20207;SDS011;10263;48.716;8.760;2023-02-11T07:44:37;12.53;;;7.47;;
20207;SDS011;10263;48.716;8.760;2023-02-11T07:47:03;12.20;;;8.43;;
20207;SDS011;10263;48.716;8.760;2023-02-11T07:49:31;14.60;;;8.30;;
20207;SDS011;10263;48.716;8.760;2023-02-11T07:51:59;10.77;;;7.37;;
20207;SDS011;10263;48.716;8.760;2023-02-11T07:54:25;11.63;;;7.33;;
20207;SDS011;10263;48.716;8.760;2023-02-11T07:56:52;12.13;;;7.87;;
20207;SDS011;10263;48.716;8.760;2023-02-11T07:59:19;16.17;;;8.43;;
20207;SDS011;10263;48.716;8.760;2023-02-11T08:01:48;13.03;;;8.17;;
20207;SDS011;10263;48.716;8.760;2023-02-11T08:04:16;18.10;;;10.03;;
20207;SDS011;10263;48.716;8.760;2023-02-11T08:06:43;12.03;;;8.00;;
20207;SDS011;10263;48.716;8.760;2023-02-11T08:09:13;10.47;;;7.30;;
20207;SDS011;10263;48.716;8.760;2023-02-11T08:11:40;27.93;;;17.27;;
20207;SDS011;10263;48.716;8.760;2023-02-11T08:14:07;7.17;;;5.70;;
20207;SDS011;10263;48.716;8.760;2023-02-11T08:16:35;10.03;;;7.03;;
20207;SDS011;10263;48.716;8.760;2023-02-11T08:19:04;9.70;;;6.40;;
20207;SDS011;10263;48.716;8.760;2023-02-11T08:21:32;12.37;;;9.20;;
20207;SDS011;10263;48.716;8.760;2023-02-11T08:24:01;9.43;;;7.00;;
20207;SDS011;10263;48.716;8.760;2023-02-11T08:26:30;9.30;;;6.80;;
20207;SDS011;10263;48.716;8.760;2023-02-11T08:28:59;9.77;;;7.40;;
20207;SDS011;10263;48.716;8.760;2023-02-11T08:31:27;9.37;;;6.57;;
20207;SDS011;10263;48.716;8.760;2023-02-11T08:33:57;9.33;;;5.93;;
20207;SDS011;10263;48.716;8.760;2023-02-11T08:36:25;9.33;;;6.30;;
20207;SDS011;10263;48.716;8.760;2023-02-11T08:38:54;8.83;;;6.07;;
20207;SDS011;10263;48.716;8.760;2023-02-11T08:41:21;9.37;;;6.40;;
20207;SDS011;10263;48.716;8.760;2023-02-11T08:43:50;8.47;;;5.80;;
20207;SDS011;10263;48.716;8.760;2023-02-11T08:46:17;11.63;;;6.97;;
20207;SDS011;10263;48.716;8.760;2023-02-11T08:48:46;13.30;;;7.50;;
20207;SDS011;10263;48.716;8.760;2023-02-11T08:51:14;12.83;;;7.07;;
20207;SDS011;10263;48.716;8.760;2023-02-11T08:53:42;9.93;;;6.87;;
20207;SDS011;10263;48.716;8.760;2023-02-11T08:56:10;10.30;;;6.50;;
20207;SDS011;10263;48.716;8.760;2023-02-11T08:58:38;10.53;;;7.33;;
20207;SDS011;10263;48.716;8.760;2023-02-11T09:01:09;11.40;;;6.87;;
20207;SDS011;10263;48.716;8.760;2023-02-11T09:03:37;15.33;;;10.87;;
20207;SDS011;10263;48.716;8.760;2023-02-11T09:06:05;12.27;;;7.50;;
20207;SDS011;10263;48.716;8.760;2023-02-11T09:08:33;9.67;;;7.00;;
20207;SDS011;10263;48.716;8.760;2023-02-11T09:11:01;11.60;;;7.73;;
20207;SDS011;10263;48.716;8.760;2023-02-11T09:13:28;7.93;;;6.50;;
20207;SDS011;10263;48.716;8.760;2023-02-11T09:15:55;10.40;;;7.00;;
20207;SDS011;10263;48.716;8.760;2023-02-11T09:18:23;10.33;;;6.33;;
20207;SDS011;10263;48.716;8.760;2023-02-11T09:20:50;7.97;;;5.57;;
20207;SDS011;10263;48.716;8.760;2023-02-11T09:23:17;10.06;;;5.06;;
20207;SDS011;10263;48.716;8.760;2023-02-11T09:25:44;10.97;;;6.53;;
20207;SDS011;10263;48.716;8.760;2023-02-11T09:28:11;8.77;;;5.97;;
20207;SDS011;10263;48.716;8.760;2023-02-11T09:30:38;9.03;;;5.07;;
20207;SDS011;10263;48.716;8.760;2023-02-11T09:33:05;7.43;;;4.30;;
20207;SDS011;10263;48.716;8.760;2023-02-11T09:35:33;6.87;;;5.03;;
20207;SDS011;10263;48.716;8.760;2023-02-11T09:38:00;12.20;;;6.60;;
20207;SDS011;10263;48.716;8.760;2023-02-11T09:40:27;8.85;;;5.07;;
20207;SDS011;10263;48.716;8.760;2023-02-11T09:42:56;7.40;;;4.93;;
20207;SDS011;10263;48.716;8.760;2023-02-11T09:45:28;8.10;;;5.27;;
20207;SDS011;10263;48.716;8.760;2023-02-11T09:47:56;7.93;;;5.17;;
20207;SDS011;10263;48.716;8.760;2023-02-11T09:50:27;6.27;;;4.27;;
20207;SDS011;10263;48.716;8.760;2023-02-11T09:52:59;8.63;;;5.83;;
20207;SDS011;10263;48.716;8.760;2023-02-11T09:55:29;8.37;;;5.47;;
20207;SDS011;10263;48.716;8.760;2023-02-11T09:58:02;6.33;;;4.57;;
20207;SDS011;10263;48.716;8.760;2023-02-11T10:00:33;5.50;;;4.50;;
20207;SDS011;10263;48.716;8.760;2023-02-11T10:03:14;8.60;;;4.70;;
20207;SDS011;10263;48.716;8.760;2023-02-11T10:05:58;8.63;;;5.10;;
20207;SDS011;10263;48.716;8.760;2023-02-11T10:08:51;7.87;;;4.23;;
20207;SDS011;10263;48.716;8.760;2023-02-11T10:11:25;5.47;;;4.93;;
20207;SDS011;10263;48.716;8.760;2023-02-11T10:14:00;5.47;;;4.60;;
20207;SDS011;10263;48.716;8.760;2023-02-11T10:16:41;6.23;;;4.60;;
20207;SDS011;10263;48.716;8.760;2023-02-11T10:19:23;7.37;;;5.10;;
20207;SDS011;10263;48.716;8.760;2023-02-11T10:22:03;20.57;;;9.83;;
20207;SDS011;10263;48.716;8.760;2023-02-11T10:24:36;12.63;;;6.97;;
20207;SDS011;10263;48.716;8.760;2023-02-11T10:27:05;8.30;;;4.75;;
20207;SDS011;10263;48.716;8.760;2023-02-11T10:29:43;6.38;;;4.50;;
20207;SDS011;10263;48.716;8.760;2023-02-11T10:32:14;6.13;;;4.72;;
20207;SDS011;10263;48.716;8.760;2023-02-11T10:34:52;4.68;;;3.90;;
20207;SDS011;10263;48.716;8.760;2023-02-11T10:37:23;4.05;;;3.40;;
20207;SDS011;10263;48.716;8.760;2023-02-11T10:39:51;4.53;;;3.80;;
20207;SDS011;10263;48.716;8.760;2023-02-11T10:42:18;4.72;;;3.70;;
20207;SDS011;10263;48.716;8.760;2023-02-11T10:44:53;5.03;;;3.10;;
20207;SDS011;10263;48.716;8.760;2023-02-11T10:47:24;4.63;;;3.00;;
20207;SDS011;10263;48.716;8.760;2023-02-11T10:49:54;2.95;;;2.65;;
20207;SDS011;10263;48.716;8.760;2023-02-11T10:52:27;3.88;;;2.60;;
20207;SDS011;10263;48.716;8.760;2023-02-11T10:55:15;3.10;;;2.80;;
20207;SDS011;10263;48.716;8.760;2023-02-11T10:57:49;5.03;;;2.90;;
20207;SDS011;10263;48.716;8.760;2023-02-11T11:00:21;3.95;;;2.67;;
20207;SDS011;10263;48.716;8.760;2023-02-11T11:02:57;4.13;;;2.60;;
20207;SDS011;10263;48.716;8.760;2023-02-11T11:05:28;4.07;;;3.10;;
20207;SDS011;10263;48.716;8.760;2023-02-11T11:07:57;3.00;;;2.65;;
20207;SDS011;10263;48.716;8.760;2023-02-11T11:10:28;5.07;;;2.78;;
20207;SDS011;10263;48.716;8.760;2023-02-11T11:12:59;3.03;;;2.50;;
20207;SDS011;10263;48.716;8.760;2023-02-11T11:15:27;3.85;;;3.22;;
20207;SDS011;10263;48.716;8.760;2023-02-11T11:18:12;4.05;;;3.10;;
20207;SDS011;10263;48.716;8.760;2023-02-11T11:20:41;4.65;;;2.75;;
20207;SDS011;10263;48.716;8.760;2023-02-11T11:23:20;3.17;;;2.75;;
20207;SDS011;10263;48.716;8.760;2023-02-11T11:25:59;2.83;;;2.30;;
20207;SDS011;10263;48.716;8.760;2023-02-11T11:28:28;4.25;;;2.72;;
20207;SDS011;10263;48.716;8.760;2023-02-11T11:30:57;6.95;;;2.92;;
20207;SDS011;10263;48.716;8.760;2023-02-11T11:33:26;3.97;;;2.88;;
20207;SDS011;10263;48.716;8.760;2023-02-11T11:35:56;3.85;;;3.20;;
20207;SDS011;10263;48.716;8.760;2023-02-11T11:38:25;9.60;;;4.72;;
20207;SDS011;10263;48.716;8.760;2023-02-11T11:41:14;2.92;;;2.63;;
20207;SDS011;10263;48.716;8.760;2023-02-11T11:43:59;4.82;;;2.53;;
20207;SDS011;10263;48.716;8.760;2023-02-11T11:46:30;16.85;;;6.00;;
20207;SDS011;10263;48.716;8.760;2023-02-11T11:49:01;11.90;;;5.15;;
20207;SDS011;10263;48.716;8.760;2023-02-11T11:51:40;13.93;;;5.68;;
20207;SDS011;10263;48.716;8.760;2023-02-11T11:54:09;3.40;;;2.50;;
20207;SDS011;10263;48.716;8.760;2023-02-11T11:56:40;7.68;;;3.95;;
20207;SDS011;10263;48.716;8.760;2023-02-11T11:59:15;3.67;;;2.75;;
20207;SDS011;10263;48.716;8.760;2023-02-11T12:01:45;3.50;;;2.50;;
20207;SDS011;10263;48.716;8.760;2023-02-11T12:04:23;3.15;;;2.30;;
20207;SDS011;10263;48.716;8.760;2023-02-11T12:07:14;3.33;;;2.65;;
20207;SDS011;10263;48.716;8.760;2023-02-11T12:50:51;2.97;;;2.38;;
20207;SDS011;10263;48.716;8.760;2023-02-11T12:56:19;4.10;;;2.60;;
20207;SDS011;10263;48.716;8.760;2023-02-11T12:58:50;2.92;;;2.67;;
20207;SDS011;10263;48.716;8.760;2023-02-11T13:01:21;4.35;;;3.40;;
20207;SDS011;10263;48.716;8.760;2023-02-11T13:03:52;3.92;;;3.35;;
20207;SDS011;10263;48.716;8.760;2023-02-11T13:06:23;3.47;;;3.15;;
20207;SDS011;10263;48.716;8.760;2023-02-11T13:08:57;5.25;;;4.20;;
20207;SDS011;10263;48.716;8.760;2023-02-11T13:11:27;5.28;;;3.63;;
20207;SDS011;10263;48.716;8.760;2023-02-11T13:13:59;4.30;;;3.67;;
20207;SDS011;10263;48.716;8.760;2023-02-11T13:16:32;8.30;;;3.65;;
20207;SDS011;10263;48.716;8.760;2023-02-11T13:19:02;5.97;;;4.10;;
20207;SDS011;10263;48.716;8.760;2023-02-11T13:21:45;5.32;;;3.78;;
20207;SDS011;10263;48.716;8.760;2023-02-11T13:24:22;5.53;;;4.13;;
20207;SDS011;10263;48.716;8.760;2023-02-11T13:26:56;13.25;;;6.65;;
20207;SDS011;10263;48.716;8.760;2023-02-11T13:29:31;6.47;;;4.90;;
20207;SDS011;10263;48.716;8.760;2023-02-11T13:32:14;6.45;;;5.13;;
20207;SDS011;10263;48.716;8.760;2023-02-11T13:34:52;15.88;;;7.35;;
20207;SDS011;10263;48.716;8.760;2023-02-11T13:37:23;8.68;;;5.78;;
20207;SDS011;10263;48.716;8.760;2023-02-11T13:39:58;13.73;;;7.75;;
20207;SDS011;10263;48.716;8.760;2023-02-11T13:42:26;10.32;;;6.60;;
20207;SDS011;10263;48.716;8.760;2023-02-11T13:44:55;5.57;;;4.90;;
20207;SDS011;10263;48.716;8.760;2023-02-11T13:47:25;12.50;;;6.55;;
20207;SDS011;10263;48.716;8.760;2023-02-11T13:49:55;16.63;;;9.32;;
20207;SDS011;10263;48.716;8.760;2023-02-11T13:52:26;16.33;;;8.27;;
20207;SDS011;10263;48.716;8.760;2023-02-11T13:54:54;6.63;;;5.65;;
20207;SDS011;10263;48.716;8.760;2023-02-11T13:57:32;11.48;;;6.68;;
20207;SDS011;10263;48.716;8.760;2023-02-11T14:00:01;7.43;;;6.10;;
20207;SDS011;10263;48.716;8.760;2023-02-11T14:02:34;7.68;;;6.20;;
20207;SDS011;10263;48.716;8.760;2023-02-11T14:05:23;7.78;;;5.75;;
20207;SDS011;10263;48.716;8.760;2023-02-11T14:08:12;7.65;;;5.93;;
20207;SDS011;10263;48.716;8.760;2023-02-11T14:11:05;8.05;;;6.63;;
20207;SDS011;10263;48.716;8.760;2023-02-11T14:16:29;9.27;;;6.53;;
20207;SDS011;10263;48.716;8.760;2023-02-11T14:18:59;10.65;;;6.80;;
20207;SDS011;10263;48.716;8.760;2023-02-11T14:21:34;7.70;;;6.30;;
20207;SDS011;10263;48.716;8.760;2023-02-11T14:27:08;7.72;;;6.85;;
20207;SDS011;10263;48.716;8.760;2023-02-11T14:29:41;6.20;;;5.45;;
20207;SDS011;10263;48.716;8.760;2023-02-11T14:32:17;6.88;;;6.18;;
20207;SDS011;10263;48.716;8.760;2023-02-11T14:34:59;9.38;;;6.28;;
20207;SDS011;10263;48.716;8.760;2023-02-11T14:37:35;9.07;;;6.68;;
20207;SDS011;10263;48.716;8.760;2023-02-11T14:40:17;8.77;;;6.60;;
20207;SDS011;10263;48.716;8.760;2023-02-11T14:42:52;6.90;;;5.90;;
20207;SDS011;10263;48.716;8.760;2023-02-11T14:45:22;8.02;;;5.60;;
20207;SDS011;10263;48.716;8.760;2023-02-11T14:47:53;5.32;;;4.82;;
20207;SDS011;10263;48.716;8.760;2023-02-11T14:50:24;5.53;;;4.43;;
20207;SDS011;10263;48.716;8.760;2023-02-11T14:52:53;6.35;;;4.45;;
20207;SDS011;10263;48.716;8.760;2023-02-11T14:55:26;6.43;;;4.60;;
20207;SDS011;10263;48.716;8.760;2023-02-11T14:58:10;5.05;;;4.53;;
20207;SDS011;10263;48.716;8.760;2023-02-11T15:00:55;7.20;;;5.35;;
20207;SDS011;10263;48.716;8.760;2023-02-11T15:03:24;8.65;;;6.00;;
20207;SDS011;10263;48.716;8.760;2023-02-11T15:05:53;8.30;;;6.10;;
20207;SDS011;10263;48.716;8.760;2023-02-11T15:08:22;5.88;;;4.60;;
20207;SDS011;10263;48.716;8.760;2023-02-11T15:10:49;5.47;;;4.53;;
20207;SDS011;10263;48.716;8.760;2023-02-11T15:13:18;5.28;;;4.35;;
20207;SDS011;10263;48.716;8.760;2023-02-11T15:15:51;14.13;;;6.70;;
20207;SDS011;10263;48.716;8.760;2023-02-11T15:18:23;8.02;;;3.67;;
20207;SDS011;10263;48.716;8.760;2023-02-11T15:20:56;12.90;;;4.93;;
20207;SDS011;10263;48.716;8.760;2023-02-11T15:23:24;4.75;;;3.50;;
20207;SDS011;10263;48.716;8.760;2023-02-11T15:25:53;3.83;;;2.95;;
20207;SDS011;10263;48.716;8.760;2023-02-11T15:28:22;4.28;;;3.35;;
20207;SDS011;10263;48.716;8.760;2023-02-11T15:30:57;4.13;;;3.13;;
20207;SDS011;10263;48.716;8.760;2023-02-11T15:33:26;4.20;;;3.38;;
20207;SDS011;10263;48.716;8.760;2023-02-11T15:35:54;6.03;;;4.32;;
20207;SDS011;10263;48.716;8.760;2023-02-11T15:38:21;5.28;;;3.97;;
20207;SDS011;10263;48.716;8.760;2023-02-11T15:40:52;4.75;;;3.72;;
20207;SDS011;10263;48.716;8.760;2023-02-11T15:43:22;5.30;;;4.05;;
20207;SDS011;10263;48.716;8.760;2023-02-11T15:45:53;5.38;;;4.47;;
20207;SDS011;10263;48.716;8.760;2023-02-11T15:48:27;5.05;;;4.03;;
20207;SDS011;10263;48.716;8.760;2023-02-11T15:51:01;6.18;;;4.38;;
20207;SDS011;10263;48.716;8.760;2023-02-11T15:53:35;6.95;;;4.55;;
20207;SDS011;10263;48.716;8.760;2023-02-11T15:56:07;7.38;;;4.78;;